createdAt,value
2018-11-20T00:02:54.650Z,33.20
2018-11-20T00:09:09.948Z,29.57
2018-11-20T00:12:17.330Z,31.30
2018-11-20T00:24:25.749Z,32.47
2018-11-20T00:30:33.119Z,30.17
2018-11-20T00:36:48.601Z,32.70
2018-11-20T00:39:57.783Z,32.97
2018-11-20T00:43:06.783Z,32.63
2018-11-20T00:45:58.057Z,34.87
2018-11-20T00:48:47.610Z,32.67
2018-11-20T00:51:55.786Z,34.00
2018-11-20T00:58:17.078Z,36.83
2018-11-20T01:07:28.275Z,37.20
2018-11-20T01:13:19.402Z,37.70
2018-11-20T01:16:27.209Z,38.30
2018-11-20T01:19:36.336Z,36.43
2018-11-20T01:31:48.023Z,29.37
2018-11-20T01:38:03.358Z,30.37
2018-11-20T01:41:11.190Z,30.03
2018-11-20T01:47:14.179Z,30.70
2018-11-20T01:50:25.492Z,30.63
2018-11-20T01:53:17.374Z,29.60
2018-11-20T01:59:24.349Z,28.13
2018-11-20T02:02:31.946Z,28.07
2018-11-20T02:05:16.252Z,29.23
2018-11-20T02:08:27.234Z,29.30
2018-11-20T02:11:17.405Z,28.00
2018-11-20T02:14:27.706Z,29.00
2018-11-20T02:17:41.160Z,28.83
2018-11-20T02:20:34.512Z,29.17
2018-11-20T02:23:26.552Z,29.10
2018-11-20T02:26:35.616Z,30.07
2018-11-20T02:29:25.484Z,27.63
2018-11-20T02:32:14.962Z,29.73
2018-11-20T02:37:53.080Z,28.03
2018-11-20T02:40:49.697Z,28.80
2018-11-20T02:46:56.958Z,28.00
2018-11-20T02:50:04.310Z,28.37
2018-11-20T02:53:11.877Z,28.90
2018-11-20T02:56:22.623Z,25.40
2018-11-20T03:02:11.397Z,27.43
2018-11-20T03:10:57.691Z,28.07
2018-11-20T03:14:05.437Z,26.77
2018-11-20T03:20:06.419Z,30.00
2018-11-20T03:22:47.902Z,27.07
2018-11-20T03:29:24.333Z,28.53
2018-11-20T03:32:14.761Z,27.73
2018-11-20T03:44:16.802Z,30.20
2018-11-20T03:47:29.377Z,30.60
2018-11-20T03:53:43.349Z,30.17
2018-11-20T04:02:55.930Z,28.80
2018-11-20T04:09:08.414Z,28.47
2018-11-20T04:14:59.922Z,27.80
2018-11-20T04:18:07.516Z,28.67
2018-11-20T04:20:59.044Z,28.87
2018-11-20T04:24:11.187Z,30.40
2018-11-20T04:27:03.138Z,28.97
2018-11-20T04:30:38.978Z,30.10
2018-11-20T04:40:09.055Z,31.37
2018-11-20T04:43:10.456Z,34.27
2018-11-20T04:58:29.595Z,39.00
2018-11-20T05:01:52.694Z,38.37
2018-11-20T05:04:51.474Z,39.03
2018-11-20T05:07:59.122Z,38.17
2018-11-20T05:10:50.067Z,41.90
2018-11-20T05:16:46.421Z,43.57
2018-11-20T05:22:37.886Z,43.60
2018-11-20T05:25:27.184Z,43.30
2018-11-20T05:32:20.633Z,43.60
2018-11-20T05:35:10.460Z,43.63
2018-11-20T05:37:45.784Z,44.20
2018-11-20T05:43:52.113Z,39.97
2018-11-20T05:46:44.520Z,39.80
2018-11-20T05:49:35.549Z,38.80
2018-11-20T05:55:22.986Z,36.77
2018-11-20T05:58:11.543Z,39.33
2018-11-20T06:01:21.981Z,35.07
2018-11-20T06:04:10.574Z,33.70
2018-11-20T06:06:52.539Z,32.73
2018-11-20T06:09:51.873Z,32.53
2018-11-20T06:12:59.423Z,30.70
2018-11-20T06:15:48.680Z,31.53
2018-11-20T06:18:57.087Z,32.20
2018-11-20T06:22:03.778Z,30.17
2018-11-20T06:25:14.197Z,30.20
2018-11-20T06:34:00.869Z,30.70
2018-11-20T06:37:04.404Z,29.40
2018-11-20T06:45:53.836Z,30.47
2018-11-20T06:48:46.435Z,25.67
2018-11-20T06:54:40.458Z,25.67
2018-11-20T07:09:53.797Z,21.63
2018-11-20T07:15:55.043Z,18.73
2018-11-20T07:19:06.800Z,18.03
2018-11-20T07:28:22.807Z,16.57
2018-11-20T07:34:23.981Z,15.40
2018-11-20T07:40:34.959Z,16.00
2018-11-20T07:43:25.334Z,16.93
2018-11-20T07:49:21.979Z,16.00
2018-11-20T07:52:09.576Z,15.80
2018-11-20T07:54:59.157Z,16.50
2018-11-20T07:58:05.717Z,15.03
2018-11-20T08:06:56.334Z,16.90
2018-11-20T08:09:44.686Z,16.20
2018-11-20T08:12:47.351Z,15.70
2018-11-20T08:16:16.775Z,15.63
2018-11-20T08:19:04.968Z,15.30
2018-11-20T08:21:54.183Z,16.00
2018-11-20T08:27:55.363Z,14.93
2018-11-20T08:33:47.086Z,15.17
2018-11-20T08:49:10.931Z,13.17
2018-11-20T08:58:57.922Z,11.90
2018-11-20T09:02:06.169Z,12.67
2018-11-20T09:11:36.961Z,12.30
2018-11-20T09:14:27.520Z,13.03
2018-11-20T09:21:13.806Z,15.20
2018-11-20T09:27:11.653Z,14.53
2018-11-20T09:30:00.579Z,16.80
2018-11-20T09:39:03.846Z,16.63
2018-11-20T09:42:04.891Z,15.03
2018-11-20T09:48:19.217Z,17.87
2018-11-20T09:57:56.317Z,19.57
2018-11-20T10:00:44.896Z,17.03
2018-11-20T10:03:35.867Z,18.57
2018-11-20T10:12:50.867Z,17.40
2018-11-20T10:15:59.116Z,15.17
2018-11-20T10:28:12.087Z,16.27
2018-11-20T10:34:01.143Z,14.60
2018-11-20T10:46:12.124Z,14.27
2018-11-20T10:48:54.712Z,14.90
2018-11-20T10:51:54.273Z,15.30
2018-11-20T10:58:00.830Z,15.90
2018-11-20T11:01:09.030Z,17.20
2018-11-20T11:06:56.415Z,15.27
2018-11-20T11:13:02.448Z,13.17
2018-11-20T11:22:00.441Z,12.20
2018-11-20T11:24:49.742Z,12.97
2018-11-20T11:30:56.060Z,12.87
2018-11-20T11:34:07.937Z,13.70
2018-11-20T11:37:16.277Z,12.70
2018-11-20T11:40:22.996Z,11.70
2018-11-20T11:46:07.059Z,11.67
2018-11-20T11:51:50.072Z,12.57
2018-11-20T11:54:58.479Z,12.57
2018-11-20T11:58:28.571Z,12.50
2018-11-20T12:04:18.726Z,12.73
2018-11-20T12:07:07.225Z,11.47
2018-11-20T12:10:14.591Z,12.50
2018-11-20T12:13:03.328Z,12.63
2018-11-20T12:19:11.069Z,12.20
2018-11-20T12:22:18.110Z,12.90
2018-11-20T12:28:24.086Z,14.47
2018-11-20T12:31:32.303Z,12.43
2018-11-20T12:37:44.834Z,12.60
2018-11-20T12:40:33.506Z,13.17
2018-11-20T12:46:42.962Z,13.33
2018-11-20T12:49:51.969Z,13.73
2018-11-20T12:58:49.199Z,14.40
2018-11-20T13:04:55.385Z,14.50
2018-11-20T13:11:07.646Z,15.10
2018-11-20T13:31:58.503Z,15.93
2018-11-20T13:38:19.036Z,15.43
2018-11-20T13:45:04.337Z,15.30
2018-11-20T13:53:58.752Z,15.50
2018-11-20T13:56:47.619Z,14.90
2018-11-20T14:00:01.408Z,14.27
2018-11-20T14:14:42.245Z,16.77
2018-11-20T14:17:49.166Z,27.47
2018-11-20T14:20:57.492Z,21.00
2018-11-20T14:24:05.768Z,14.07
2018-11-20T14:29:47.121Z,15.00
2018-11-20T14:32:55.327Z,14.03
2018-11-20T14:36:04.135Z,13.93
2018-11-20T14:38:56.528Z,14.73
2018-11-20T14:47:46.559Z,16.37
2018-11-20T14:50:35.175Z,16.70
2018-11-20T14:53:43.446Z,14.77
2018-11-20T14:56:51.830Z,16.30
2018-11-20T14:59:40.842Z,15.90
2018-11-20T15:02:43.698Z,15.77
2018-11-20T15:05:48.036Z,18.17
2018-11-20T15:08:55.032Z,17.30
2018-11-20T15:11:49.530Z,18.10
2018-11-20T15:14:36.337Z,17.97
2018-11-20T15:17:32.781Z,19.83
2018-11-20T15:20:37.474Z,17.77
2018-11-20T15:23:30.772Z,18.90
2018-11-20T15:26:10.078Z,19.00
2018-11-20T15:29:01.142Z,19.10
2018-11-20T15:32:05.089Z,18.57
2018-11-20T15:34:57.951Z,23.57
2018-11-20T15:37:50.891Z,35.13
2018-11-20T15:40:30.368Z,22.57
2018-11-20T15:43:24.841Z,28.97
2018-11-20T15:46:19.768Z,23.50
2018-11-20T15:49:13.792Z,26.50
2018-11-20T15:51:58.336Z,21.07
2018-11-20T15:55:03.737Z,21.50
2018-11-20T15:58:04.210Z,24.47
2018-11-20T16:00:56.025Z,23.33
2018-11-20T16:03:43.857Z,21.97
2018-11-20T16:06:31.673Z,20.57
2018-11-20T16:09:30.758Z,26.93
2018-11-20T16:12:17.940Z,21.10
2018-11-20T16:15:10.940Z,20.37
2018-11-20T16:17:55.260Z,24.90
2018-11-20T16:20:54.047Z,21.93
2018-11-20T16:23:49.393Z,30.90
2018-11-20T16:26:38.012Z,22.80
2018-11-20T16:29:27.531Z,23.00
2018-11-20T16:32:21.548Z,23.30
2018-11-20T16:35:09.222Z,21.73
2018-11-20T16:37:59.413Z,19.50
2018-11-20T16:40:37.891Z,24.57
2018-11-20T16:43:28.028Z,19.93
2018-11-20T16:46:17.607Z,21.10
2018-11-20T16:49:11.514Z,20.87
2018-11-20T16:52:12.306Z,20.67
2018-11-20T16:54:59.040Z,23.40
2018-11-20T16:57:48.281Z,20.47
2018-11-20T17:00:37.468Z,22.70
2018-11-20T17:03:20.431Z,22.17
2018-11-20T17:06:05.038Z,21.93
2018-11-20T17:08:52.263Z,21.40
2018-11-20T17:11:43.445Z,23.23
2018-11-20T17:14:43.537Z,18.70
2018-11-20T17:17:42.380Z,24.90
2018-11-20T17:20:32.056Z,24.07
2018-11-20T17:23:27.585Z,26.53
2018-11-20T17:26:11.415Z,24.40
2018-11-20T17:29:10.590Z,25.23
2018-11-20T17:31:58.861Z,23.53
2018-11-20T17:34:59.455Z,23.30
2018-11-20T17:37:46.977Z,22.00
2018-11-20T17:40:36.034Z,23.37
2018-11-20T17:43:23.168Z,24.50
2018-11-20T17:46:09.901Z,24.60
2018-11-20T17:49:05.201Z,23.30
2018-11-20T17:51:54.065Z,24.90
2018-11-20T17:54:55.603Z,24.00
2018-11-20T17:57:34.801Z,28.00
2018-11-20T18:00:26.418Z,25.63
2018-11-20T18:03:27.610Z,38.17
2018-11-20T18:06:07.307Z,30.93
2018-11-20T18:09:00.508Z,61.43
2018-11-20T18:11:47.500Z,21.90
2018-11-20T18:14:35.103Z,32.43
2018-11-20T18:17:22.216Z,23.60
2018-11-20T18:20:20.603Z,22.90
2018-11-20T18:23:20.075Z,23.80
2018-11-20T18:25:57.263Z,24.23
2018-11-20T18:28:54.762Z,20.67
2018-11-20T18:31:42.339Z,22.40
2018-11-20T18:34:44.092Z,31.60
2018-11-20T18:37:28.170Z,34.90
2018-11-20T18:40:16.249Z,30.27
2018-11-20T18:43:15.627Z,36.43
2018-11-20T18:46:15.542Z,30.40
2018-11-20T18:49:05.840Z,28.03
2018-11-20T18:51:48.028Z,23.03
2018-11-20T18:54:49.610Z,22.90
2018-11-20T18:57:40.717Z,18.20
2018-11-20T19:00:37.251Z,18.53
2018-11-20T19:03:27.240Z,18.63
2018-11-20T19:06:18.708Z,18.90
2018-11-20T19:09:26.074Z,18.63
2018-11-20T19:12:13.362Z,18.03
2018-11-20T19:15:18.216Z,18.43
2018-11-20T19:18:15.873Z,18.93
2018-11-20T19:21:03.280Z,18.40
2018-11-20T19:23:57.896Z,18.13
2018-11-20T19:26:37.065Z,18.93
2018-11-20T19:29:24.570Z,16.90
2018-11-20T19:32:18.605Z,19.90
2018-11-20T19:35:06.610Z,19.67
2018-11-20T19:37:54.323Z,22.30
2018-11-20T19:40:50.788Z,22.00
2018-11-20T19:43:42.761Z,21.83
2018-11-20T19:46:42.009Z,20.10
2018-11-20T19:49:40.363Z,20.63
2018-11-20T19:52:19.646Z,20.50
2018-11-20T19:55:20.710Z,20.10
2018-11-20T19:58:19.138Z,20.40
2018-11-20T20:01:13.297Z,21.80
2018-11-20T20:04:04.338Z,19.97
2018-11-20T20:06:51.944Z,20.70
2018-11-20T20:09:42.955Z,21.80
2018-11-20T20:12:20.814Z,21.97
2018-11-20T20:15:13.062Z,22.13
2018-11-20T20:18:05.767Z,22.20
2018-11-20T20:20:52.708Z,20.77
2018-11-20T20:23:40.608Z,21.87
2018-11-20T20:26:37.784Z,24.07
2018-11-20T20:29:40.504Z,20.77
2018-11-20T20:32:38.126Z,21.40
2018-11-20T20:35:33.207Z,21.23
2018-11-20T20:38:37.738Z,20.33
2018-11-20T20:41:26.315Z,23.27
2018-11-20T20:44:21.380Z,22.33
2018-11-20T20:47:08.651Z,23.73
2018-11-20T20:49:53.416Z,22.43
2018-11-20T20:52:33.334Z,21.80
2018-11-20T20:55:23.231Z,23.10
2018-11-20T20:58:20.463Z,25.17
2018-11-20T21:01:18.147Z,24.43
2018-11-20T21:04:13.876Z,24.07
2018-11-20T21:07:04.508Z,24.60
2018-11-20T21:09:53.486Z,23.50
2018-11-20T21:12:41.999Z,23.93
2018-11-20T21:15:33.923Z,24.67
2018-11-20T21:18:20.882Z,24.30
2018-11-20T21:21:15.614Z,23.90
2018-11-20T21:23:59.510Z,24.57
2018-11-20T21:26:45.654Z,25.37
2018-11-20T21:29:48.496Z,25.33
2018-11-20T21:32:46.485Z,27.40
2018-11-20T21:35:26.262Z,25.00
2018-11-20T21:38:14.823Z,24.53
2018-11-20T21:41:01.790Z,25.10
2018-11-20T21:44:06.498Z,25.30
2018-11-20T21:46:49.311Z,24.30
2018-11-20T21:49:38.587Z,25.77
2018-11-20T21:52:26.252Z,24.80
2018-11-20T21:55:27.898Z,24.63
2018-11-20T21:58:27.355Z,24.87
2018-11-20T22:01:27.329Z,24.90
2018-11-20T22:04:37.037Z,26.13
2018-11-20T22:07:24.643Z,26.13
2018-11-20T22:10:17.077Z,27.30
2018-11-20T22:13:17.887Z,26.70
2018-11-20T22:16:27.035Z,27.37
2018-11-20T22:19:21.728Z,26.90
2018-11-20T22:22:09.080Z,29.07
2018-11-20T22:25:02.625Z,26.33
2018-11-20T22:27:59.523Z,27.70
2018-11-20T22:30:47.068Z,28.53
2018-11-20T22:33:42.406Z,28.87
2018-11-20T22:36:35.204Z,27.70
2018-11-20T22:39:27.944Z,28.43
2018-11-20T22:42:18.914Z,29.47
2018-11-20T22:45:10.556Z,27.53
2018-11-20T22:48:08.120Z,28.93
2018-11-20T22:50:56.639Z,28.50
2018-11-20T22:53:51.429Z,28.90
2018-11-20T22:56:44.582Z,30.03
2018-11-20T22:59:30.051Z,30.87
2018-11-20T23:02:21.500Z,29.13
2018-11-20T23:05:24.766Z,25.33
2018-11-20T23:07:57.695Z,27.43
2018-11-20T23:10:29.582Z,28.73
2018-11-20T23:12:59.875Z,29.10
2018-11-20T23:15:31.093Z,27.77
2018-11-20T23:18:00.924Z,27.20
2018-11-20T23:20:32.035Z,27.03
2018-11-20T23:23:03.029Z,27.00
2018-11-20T23:25:34.154Z,28.03
2018-11-20T23:28:04.096Z,27.43
2018-11-20T23:30:35.141Z,26.17
2018-11-20T23:33:05.018Z,28.23
2018-11-20T23:35:36.159Z,28.23
2018-11-20T23:38:06.197Z,27.10
2018-11-20T23:40:36.954Z,30.07
2018-11-20T23:43:07.120Z,29.77
2018-11-20T23:45:37.044Z,26.60
2018-11-20T23:48:08.097Z,26.80
2018-11-20T23:50:37.563Z,29.93
2018-11-20T23:53:09.161Z,29.07
2018-11-20T23:55:40.104Z,28.57
2018-11-20T23:58:10.110Z,28.80
